createdAt,value
2022-10-21T00:01:40.897Z,40.79
2022-10-21T00:04:07.909Z,40.65
2022-10-21T00:06:34.577Z,40.57
2022-10-21T00:09:01.243Z,40.80
2022-10-21T00:11:28.185Z,40.65
2022-10-21T00:13:54.940Z,40.76
2022-10-21T00:16:21.504Z,40.82
2022-10-21T00:18:48.858Z,40.64
2022-10-21T00:21:21.207Z,40.88
2022-10-21T00:23:48.469Z,41.03
2022-10-21T00:26:15.588Z,41.04
2022-10-21T00:28:43.189Z,40.86
2022-10-21T00:31:11.546Z,40.85
2022-10-21T00:33:38.544Z,40.82
2022-10-21T00:36:07.521Z,41.04
2022-10-21T00:38:35.679Z,40.81
2022-10-21T00:41:02.751Z,40.80
2022-10-21T00:43:29.485Z,40.96
2022-10-21T00:45:59.972Z,40.71
2022-10-21T00:48:41.522Z,40.81
2022-10-21T00:51:12.709Z,40.81
2022-10-21T00:53:42.639Z,40.97
2022-10-21T00:56:15.513Z,41.09
2022-10-21T00:58:45.642Z,41.02
2022-10-21T01:01:13.046Z,41.11
2022-10-21T01:03:41.071Z,40.85
2022-10-21T01:06:10.612Z,40.94
2022-10-21T01:08:37.775Z,40.84
2022-10-21T01:11:07.060Z,40.86
2022-10-21T01:13:57.669Z,40.71
2022-10-21T01:16:26.948Z,40.86
2022-10-21T01:19:02.320Z,40.82
2022-10-21T01:21:42.329Z,41.18
2022-10-21T01:24:11.612Z,40.88
2022-10-21T01:26:59.925Z,40.91
2022-10-21T01:30:02.911Z,40.76
2022-10-21T01:32:45.018Z,41.05
2022-10-21T01:35:24.905Z,40.80
2022-10-21T01:38:22.307Z,40.92
2022-10-21T01:41:06.923Z,40.72
2022-10-21T01:43:50.216Z,40.90
2022-10-21T01:46:25.805Z,40.95
2022-10-21T01:48:58.605Z,41.09
2022-10-21T01:51:26.873Z,41.03
2022-10-21T01:54:01.745Z,40.83
2022-10-21T01:56:29.847Z,40.80
2022-10-21T01:58:56.824Z,40.88
2022-10-21T02:01:24.653Z,40.89
2022-10-21T02:03:58.947Z,40.74
2022-10-21T02:06:25.647Z,40.88
2022-10-21T02:08:52.580Z,40.50
2022-10-21T02:11:20.025Z,40.83
2022-10-21T02:13:54.408Z,40.57
2022-10-21T02:16:26.269Z,40.58
2022-10-21T02:18:54.521Z,40.79
2022-10-21T02:21:24.479Z,40.82
2022-10-21T02:24:13.603Z,40.52
2022-10-21T02:26:40.376Z,40.71
2022-10-21T02:29:07.292Z,40.54
2022-10-21T02:31:49.036Z,40.49
2022-10-21T02:34:15.498Z,40.83
2022-10-21T02:37:27.358Z,40.66
2022-10-21T02:40:04.044Z,40.50
2022-10-21T02:42:38.322Z,40.62
2022-10-21T02:45:06.461Z,40.78
2022-10-21T02:47:36.824Z,40.55
2022-10-21T02:50:04.030Z,40.45
2022-10-21T02:52:30.520Z,40.41
2022-10-21T02:54:57.070Z,40.52
2022-10-21T02:57:23.672Z,40.60
2022-10-21T02:59:50.184Z,40.57
2022-10-21T03:02:17.720Z,40.51
2022-10-21T03:04:44.409Z,40.27
2022-10-21T03:07:10.893Z,40.27
2022-10-21T03:09:37.438Z,40.21
2022-10-21T03:12:04.135Z,40.52
2022-10-21T03:14:30.846Z,40.54
2022-10-21T03:16:57.308Z,40.50
2022-10-21T03:19:23.908Z,40.01
2022-10-21T03:21:50.448Z,40.29
2022-10-21T03:24:27.967Z,40.46
2022-10-21T03:26:56.010Z,40.06
2022-10-21T03:29:22.614Z,40.01
2022-10-21T03:31:49.261Z,40.14
2022-10-21T03:34:16.029Z,40.32
2022-10-21T03:36:42.565Z,40.04
2022-10-21T03:39:11.267Z,40.07
2022-10-21T03:41:38.036Z,39.97
2022-10-21T03:46:25.105Z,40.20
2022-10-21T03:48:51.757Z,40.06
2022-10-21T03:51:18.270Z,40.02
2022-10-21T03:53:44.787Z,39.98
2022-10-21T03:56:12.647Z,40.23
2022-10-21T03:58:40.021Z,39.90
2022-10-21T04:01:06.651Z,40.01
2022-10-21T04:03:33.211Z,39.71
2022-10-21T04:05:59.735Z,39.88
2022-10-21T04:08:26.320Z,39.93
2022-10-21T04:10:52.866Z,39.91
2022-10-21T04:13:19.780Z,40.01
2022-10-21T04:15:46.275Z,39.84
2022-10-21T04:18:13.095Z,39.78
2022-10-21T04:20:39.624Z,39.85
2022-10-21T04:23:06.283Z,39.94
2022-10-21T04:25:32.912Z,39.85
2022-10-21T04:27:59.548Z,39.66
2022-10-21T04:30:26.129Z,39.62
2022-10-21T04:32:52.747Z,39.59
2022-10-21T04:35:19.264Z,39.47
2022-10-21T04:37:45.842Z,39.77
2022-10-21T04:40:12.419Z,39.70
2022-10-21T04:42:39.051Z,39.71
2022-10-21T04:45:06.014Z,39.58
2022-10-21T04:47:32.617Z,39.40
2022-10-21T04:49:59.105Z,39.37
2022-10-21T04:52:25.634Z,39.49
2022-10-21T04:54:52.213Z,39.23
2022-10-21T04:57:20.371Z,39.45
2022-10-21T04:59:46.846Z,39.64
2022-10-21T05:02:14.019Z,39.48
2022-10-21T05:04:40.676Z,39.56
2022-10-21T05:07:07.504Z,39.52
2022-10-21T05:09:34.447Z,39.50
2022-10-21T05:12:01.089Z,39.47
2022-10-21T05:14:27.651Z,39.33
2022-10-21T05:16:54.235Z,39.53
2022-10-21T05:19:20.728Z,39.42
2022-10-21T05:21:47.288Z,39.24
2022-10-21T05:24:15.352Z,39.29
2022-10-21T05:26:42.025Z,39.51
2022-10-21T05:29:08.688Z,39.60
2022-10-21T05:31:35.790Z,39.56
2022-10-21T05:34:02.646Z,39.70
2022-10-21T05:36:29.289Z,39.87
2022-10-21T05:38:56.019Z,39.81
2022-10-21T05:41:23.369Z,39.75
2022-10-21T05:43:49.861Z,39.98
2022-10-21T05:46:16.464Z,39.45
2022-10-21T05:48:42.973Z,40.00
2022-10-21T05:51:09.745Z,39.79
2022-10-21T05:53:36.583Z,39.72
2022-10-21T05:56:06.398Z,39.99
2022-10-21T05:58:34.112Z,39.77
2022-10-21T06:01:01.897Z,39.67
2022-10-21T06:03:30.680Z,39.84
2022-10-21T06:05:58.571Z,39.71
2022-10-21T06:08:26.014Z,39.36
2022-10-21T06:13:21.933Z,39.24
2022-10-21T06:15:50.246Z,39.21
2022-10-21T06:18:17.529Z,39.29
2022-10-21T06:20:44.068Z,39.68
2022-10-21T06:23:12.551Z,39.43
2022-10-21T06:25:39.085Z,39.35
2022-10-21T06:28:05.828Z,39.48
2022-10-21T06:30:32.488Z,39.72
2022-10-21T06:32:59.033Z,39.56
2022-10-21T06:35:26.337Z,39.70
2022-10-21T06:37:52.892Z,39.83
2022-10-21T06:40:19.857Z,39.58
2022-10-21T06:42:46.470Z,39.56
2022-10-21T06:45:13.064Z,39.88
2022-10-21T06:47:39.872Z,39.57
2022-10-21T06:50:07.344Z,39.55
2022-10-21T06:52:34.210Z,39.65
2022-10-21T06:55:00.775Z,39.99
2022-10-21T06:57:27.786Z,39.70
2022-10-21T06:59:54.344Z,40.06
2022-10-21T07:02:21.016Z,40.07
2022-10-21T07:04:49.187Z,40.12
2022-10-21T07:07:16.801Z,40.30
2022-10-21T07:09:43.485Z,40.42
2022-10-21T07:12:10.532Z,40.25
2022-10-21T07:14:37.342Z,40.58
2022-10-21T07:17:05.052Z,40.54
2022-10-21T07:19:35.289Z,40.18
2022-10-21T07:22:01.889Z,40.28
2022-10-21T07:24:28.646Z,40.30
2022-10-21T07:26:55.286Z,40.38
2022-10-21T07:29:22.579Z,40.38
2022-10-21T07:31:49.207Z,40.76
2022-10-21T07:34:15.983Z,40.78
2022-10-21T07:36:55.163Z,40.85
2022-10-21T07:39:25.256Z,40.65
2022-10-21T07:41:54.636Z,40.52
2022-10-21T07:44:23.973Z,40.20
2022-10-21T07:46:51.801Z,40.29
2022-10-21T07:49:20.164Z,40.23
2022-10-21T07:51:47.113Z,40.09
2022-10-21T07:54:14.623Z,40.26
2022-10-21T07:56:45.184Z,40.11
2022-10-21T07:59:13.439Z,40.17
2022-10-21T08:01:44.205Z,40.33
2022-10-21T08:04:13.035Z,40.65
2022-10-21T08:06:40.038Z,40.60
2022-10-21T08:09:06.663Z,40.91
2022-10-21T08:11:34.507Z,41.20
2022-10-21T08:14:01.479Z,41.35
2022-10-21T08:16:28.065Z,41.54
2022-10-21T08:18:55.545Z,41.75
2022-10-21T08:21:22.152Z,41.86
2022-10-21T08:23:48.816Z,41.61
2022-10-21T08:26:16.273Z,41.83
2022-10-21T08:28:43.151Z,42.06
2022-10-21T08:31:15.816Z,42.29
2022-10-21T08:33:43.377Z,42.14
2022-10-21T08:36:22.746Z,42.41
2022-10-21T08:38:49.845Z,42.45
2022-10-21T08:41:28.675Z,42.37
2022-10-21T08:44:18.276Z,42.50
2022-10-21T08:47:13.096Z,42.68
2022-10-21T08:49:49.688Z,42.95
2022-10-21T08:52:21.215Z,42.63
2022-10-21T08:54:57.139Z,42.10
2022-10-21T08:57:24.134Z,42.42
2022-10-21T08:59:50.956Z,42.60
2022-10-21T09:02:47.310Z,42.52
2022-10-21T09:05:36.014Z,42.49
2022-10-21T09:08:42.099Z,42.47
2022-10-21T09:11:39.360Z,42.60
2022-10-21T09:14:25.001Z,42.53
2022-10-21T09:17:03.605Z,42.37
2022-10-21T09:19:41.769Z,42.55
2022-10-21T09:22:36.207Z,42.30
2022-10-21T09:25:20.931Z,42.42
2022-10-21T09:27:56.173Z,42.42
2022-10-21T09:30:24.627Z,42.14
2022-10-21T09:32:56.457Z,42.01
2022-10-21T09:35:26.780Z,42.14
2022-10-21T09:38:16.764Z,42.20
2022-10-21T09:40:45.476Z,42.11
2022-10-21T09:43:19.697Z,42.31
2022-10-21T09:45:47.652Z,42.34
2022-10-21T09:48:30.146Z,42.61
2022-10-21T09:51:06.951Z,42.48
2022-10-21T09:53:42.971Z,42.55
2022-10-21T09:56:33.948Z,42.66
2022-10-21T09:59:15.001Z,42.47
2022-10-21T10:01:43.287Z,42.41
2022-10-21T10:04:32.609Z,42.42
2022-10-21T10:07:19.839Z,42.37
2022-10-21T10:09:47.785Z,42.36
2022-10-21T10:12:22.556Z,42.49
2022-10-21T10:14:49.537Z,42.46
2022-10-21T10:17:37.297Z,42.03
2022-10-21T10:20:03.880Z,42.33
2022-10-21T10:22:31.164Z,42.03
2022-10-21T10:25:09.065Z,41.89
2022-10-21T10:27:36.470Z,42.14
2022-10-21T10:30:06.315Z,41.93
2022-10-21T10:32:35.475Z,41.60
2022-10-21T10:35:07.206Z,41.50
2022-10-21T10:37:36.635Z,41.55
2022-10-21T10:40:08.396Z,41.62
2022-10-21T10:42:42.988Z,41.38
2022-10-21T10:45:19.764Z,41.20
2022-10-21T10:47:56.513Z,41.21
2022-10-21T10:50:38.113Z,41.03
2022-10-21T10:53:38.880Z,41.32
2022-10-21T10:56:29.468Z,41.02
2022-10-21T10:59:18.341Z,41.09
2022-10-21T11:02:00.385Z,40.97
2022-10-21T11:04:38.310Z,40.78
2022-10-21T11:07:07.804Z,40.94
2022-10-21T11:09:34.617Z,40.78
2022-10-21T11:12:05.901Z,40.82
2022-10-21T11:14:32.496Z,40.49
2022-10-21T11:17:13.551Z,40.82
2022-10-21T11:20:03.741Z,40.57
2022-10-21T11:22:51.541Z,40.65
2022-10-21T11:25:55.619Z,40.47
2022-10-21T11:28:50.028Z,40.51
2022-10-21T11:32:09.707Z,40.55
2022-10-21T11:34:49.288Z,40.48
2022-10-21T11:37:33.229Z,40.23
2022-10-21T11:40:30.093Z,40.18
2022-10-21T11:43:05.312Z,40.37
2022-10-21T11:45:50.148Z,40.19
2022-10-21T11:48:32.188Z,39.96
2022-10-21T11:51:05.161Z,40.13
2022-10-21T11:53:57.508Z,40.11
2022-10-21T11:56:43.369Z,39.94
2022-10-21T11:59:34.939Z,40.02
2022-10-21T12:02:34.369Z,39.94
2022-10-21T12:05:19.848Z,39.70
2022-10-21T12:08:07.841Z,39.75
2022-10-21T12:10:36.912Z,39.63
2022-10-21T12:13:13.820Z,39.45
2022-10-21T12:15:47.959Z,39.79
2022-10-21T12:18:18.888Z,39.62
2022-10-21T12:20:49.013Z,39.80
2022-10-21T12:23:22.338Z,39.59
2022-10-21T12:26:15.421Z,39.19
2022-10-21T12:29:01.032Z,39.40
2022-10-21T12:31:30.610Z,39.15
2022-10-21T12:33:58.041Z,39.01
2022-10-21T12:36:43.156Z,39.00
2022-10-21T12:39:31.400Z,39.18
2022-10-21T12:42:16.020Z,38.91
2022-10-21T12:44:51.633Z,38.87
2022-10-21T12:47:33.720Z,38.66
2022-10-21T12:50:30.895Z,38.84
2022-10-21T12:53:26.060Z,38.59
2022-10-21T12:55:58.931Z,38.62
2022-10-21T12:58:56.321Z,38.46
2022-10-21T13:01:38.669Z,38.55
2022-10-21T13:04:26.074Z,38.40
2022-10-21T13:06:52.645Z,38.15
2022-10-21T13:09:50.824Z,38.34
2022-10-21T13:12:23.144Z,38.42
2022-10-21T13:14:54.541Z,38.34
2022-10-21T13:17:21.045Z,38.41
2022-10-21T13:19:48.279Z,38.24
2022-10-21T13:22:21.840Z,37.98
2022-10-21T13:24:49.771Z,38.14
2022-10-21T13:27:27.626Z,38.12
2022-10-21T13:29:55.568Z,38.04
2022-10-21T13:32:25.483Z,37.94
2022-10-21T13:34:57.229Z,37.99
2022-10-21T13:37:31.463Z,37.94
2022-10-21T13:40:02.278Z,37.88
2022-10-21T13:42:44.692Z,37.95
2022-10-21T13:45:51.574Z,38.03
2022-10-21T13:48:20.443Z,38.01
2022-10-21T13:50:49.377Z,38.04
2022-10-21T13:53:18.580Z,38.02
2022-10-21T13:56:03.391Z,37.89
2022-10-21T13:58:36.027Z,38.23
2022-10-21T14:01:21.661Z,38.02
2022-10-21T14:06:30.572Z,38.22
2022-10-21T14:09:04.377Z,37.92
2022-10-21T14:11:36.575Z,37.84
2022-10-21T14:14:08.568Z,37.92
2022-10-21T14:16:40.815Z,37.72
2022-10-21T14:19:18.361Z,37.85
2022-10-21T14:21:49.243Z,37.91
2022-10-21T14:24:25.136Z,37.93
2022-10-21T14:26:52.049Z,37.98
2022-10-21T14:29:19.950Z,37.95
2022-10-21T14:31:46.846Z,38.05
2022-10-21T14:34:28.748Z,37.76
2022-10-21T14:37:15.565Z,37.87
2022-10-21T14:39:42.248Z,37.96
2022-10-21T14:42:15.920Z,37.85
2022-10-21T14:44:47.728Z,37.72
2022-10-21T14:47:23.637Z,37.63
2022-10-21T14:49:52.988Z,37.75
2022-10-21T14:52:22.820Z,37.76
2022-10-21T14:54:54.636Z,38.03
2022-10-21T14:57:39.807Z,38.02
2022-10-21T15:00:19.676Z,38.26
2022-10-21T15:02:46.818Z,38.01
2022-10-21T15:05:47.889Z,37.87
2022-10-21T15:08:21.747Z,37.82
2022-10-21T15:10:57.157Z,37.84
2022-10-21T15:13:25.766Z,37.92
2022-10-21T15:15:55.283Z,37.96
2022-10-21T15:18:34.038Z,38.03
2022-10-21T15:21:14.969Z,38.09
2022-10-21T15:23:51.128Z,37.95
2022-10-21T15:26:32.691Z,38.05
2022-10-21T15:28:59.780Z,38.04
2022-10-21T15:31:28.780Z,38.16
2022-10-21T15:33:58.412Z,38.09
2022-10-21T15:36:27.773Z,38.15
2022-10-21T15:38:55.316Z,38.24
2022-10-21T15:41:24.658Z,38.35
2022-10-21T15:44:01.047Z,38.25
2022-10-21T15:46:29.467Z,38.25
2022-10-21T15:48:57.003Z,38.38
2022-10-21T15:51:23.734Z,38.45
2022-10-21T15:53:50.233Z,38.29
2022-10-21T15:56:19.253Z,38.40
2022-10-21T15:58:46.470Z,38.19
2022-10-21T16:01:16.487Z,38.72
2022-10-21T16:03:44.305Z,38.60
2022-10-21T16:06:17.745Z,38.52
2022-10-21T16:08:44.423Z,38.85
2022-10-21T16:11:21.744Z,38.77
2022-10-21T16:13:56.652Z,38.71
2022-10-21T16:16:25.171Z,38.77
2022-10-21T16:18:53.006Z,38.72
2022-10-21T16:21:21.068Z,39.03
2022-10-21T16:23:48.115Z,39.08
2022-10-21T16:26:21.484Z,39.48
2022-10-21T16:28:49.495Z,39.50
2022-10-21T16:31:16.474Z,39.71
2022-10-21T16:33:43.614Z,39.60
2022-10-21T16:36:25.320Z,39.65
2022-10-21T16:38:52.748Z,39.50
2022-10-21T16:41:28.797Z,39.60
2022-10-21T16:43:58.779Z,39.54
2022-10-21T16:46:30.818Z,39.54
2022-10-21T16:48:58.656Z,39.72
2022-10-21T16:51:28.598Z,39.71
2022-10-21T16:53:55.220Z,39.83
2022-10-21T16:56:22.433Z,39.61
2022-10-21T16:58:49.388Z,39.43
2022-10-21T17:01:20.957Z,39.50
2022-10-21T17:03:47.780Z,39.54
2022-10-21T17:06:22.458Z,39.66
2022-10-21T17:08:50.721Z,40.13
2022-10-21T17:11:29.474Z,40.27
2022-10-21T17:13:56.056Z,40.21
2022-10-21T17:16:22.595Z,40.17
2022-10-21T17:18:49.305Z,40.16
2022-10-21T17:21:27.774Z,40.74
2022-10-21T17:23:55.909Z,40.72
2022-10-21T17:26:23.434Z,40.69
2022-10-21T17:28:50.740Z,41.00
2022-10-21T17:31:22.713Z,41.01
2022-10-21T17:33:51.345Z,40.64
2022-10-21T17:36:18.605Z,40.86
2022-10-21T17:38:46.245Z,41.03
2022-10-21T17:41:15.317Z,41.03
2022-10-21T17:43:42.317Z,40.82
2022-10-21T17:46:16.415Z,40.91
2022-10-21T17:48:43.018Z,40.60
2022-10-21T17:51:09.821Z,40.90
2022-10-21T17:53:36.429Z,40.92
2022-10-21T17:56:06.411Z,40.57
2022-10-21T17:58:33.422Z,40.78
2022-10-21T18:01:06.155Z,40.44
2022-10-21T18:03:32.708Z,40.66
2022-10-21T18:05:59.223Z,40.70
2022-10-21T18:08:25.821Z,40.37
2022-10-21T18:10:56.400Z,40.60
2022-10-21T18:13:24.331Z,40.60
2022-10-21T18:15:51.377Z,40.30
2022-10-21T18:18:19.044Z,40.51
2022-10-21T18:20:46.409Z,40.29
2022-10-21T18:23:13.882Z,40.39
2022-10-21T18:25:41.401Z,40.33
2022-10-21T18:28:08.826Z,40.40
2022-10-21T18:30:42.334Z,40.66
2022-10-21T18:33:09.635Z,40.66
2022-10-21T18:35:36.442Z,40.75
2022-10-21T18:38:03.313Z,40.54
2022-10-21T18:40:29.945Z,40.53
2022-10-21T18:42:56.542Z,40.82
2022-10-21T18:45:25.910Z,40.64
2022-10-21T18:47:54.052Z,40.47
2022-10-21T18:50:20.870Z,40.83
2022-10-21T18:52:47.555Z,40.53
2022-10-21T18:55:14.131Z,40.62
2022-10-21T18:57:42.550Z,40.73
2022-10-21T19:00:09.765Z,40.96
2022-10-21T19:02:36.466Z,40.77
2022-10-21T19:05:03.180Z,40.91
2022-10-21T19:07:29.835Z,40.88
2022-10-21T19:09:56.415Z,40.93
2022-10-21T19:12:23.662Z,40.95
2022-10-21T19:14:50.779Z,40.71
2022-10-21T19:17:19.058Z,40.83
2022-10-21T19:19:45.936Z,40.96
2022-10-21T19:22:14.548Z,40.88
2022-10-21T19:24:41.185Z,41.13
2022-10-21T19:27:07.764Z,40.70
2022-10-21T19:29:34.433Z,40.62
2022-10-21T19:32:03.330Z,40.60
2022-10-21T19:34:29.852Z,40.90
2022-10-21T19:36:56.493Z,40.51
2022-10-21T19:39:23.082Z,40.70
2022-10-21T19:41:49.722Z,40.68
2022-10-21T19:44:16.733Z,40.80
2022-10-21T19:46:44.534Z,40.99
2022-10-21T19:49:13.110Z,41.39
2022-10-21T19:51:40.092Z,41.45
2022-10-21T19:54:08.855Z,41.63
2022-10-21T19:56:35.569Z,41.37
2022-10-21T19:59:03.052Z,41.25
2022-10-21T20:01:30.900Z,41.26
2022-10-21T20:03:59.570Z,41.29
2022-10-21T20:06:31.309Z,41.38
2022-10-21T20:09:01.703Z,41.25
2022-10-21T20:11:28.627Z,41.58
2022-10-21T20:13:55.480Z,41.36
2022-10-21T20:16:37.654Z,41.75
2022-10-21T20:19:05.140Z,41.59
2022-10-21T20:21:34.004Z,41.58
2022-10-21T20:24:02.305Z,41.67
2022-10-21T20:26:29.206Z,41.63
2022-10-21T20:28:56.168Z,41.64
2022-10-21T20:31:22.800Z,41.45
2022-10-21T20:33:50.882Z,41.69
2022-10-21T20:36:26.222Z,41.59
2022-10-21T20:38:54.409Z,41.98
2022-10-21T20:41:27.100Z,41.99
2022-10-21T20:43:54.553Z,41.90
2022-10-21T20:46:23.457Z,41.75
2022-10-21T20:48:51.840Z,41.76
2022-10-21T20:51:23.981Z,41.72
2022-10-21T20:53:53.703Z,41.51
2022-10-21T20:56:21.336Z,42.05
2022-10-21T20:58:48.165Z,42.12
2022-10-21T21:01:19.675Z,41.83
2022-10-21T21:03:49.663Z,42.05
2022-10-21T21:06:16.304Z,42.09
2022-10-21T21:08:48.753Z,41.78
2022-10-21T21:11:18.355Z,42.04
2022-10-21T21:13:45.221Z,41.76
2022-10-21T21:16:22.848Z,41.79
2022-10-21T21:19:03.067Z,41.78
2022-10-21T21:21:31.884Z,42.13
2022-10-21T21:23:58.523Z,41.93
2022-10-21T21:26:37.019Z,41.72
2022-10-21T21:29:08.957Z,41.80
2022-10-21T21:31:38.156Z,42.02
2022-10-21T21:34:05.637Z,42.35
2022-10-21T21:36:32.343Z,42.25
2022-10-21T21:38:59.265Z,42.22
2022-10-21T21:41:26.364Z,42.08
2022-10-21T21:43:54.647Z,41.93
2022-10-21T21:46:24.828Z,41.96
2022-10-21T21:48:55.252Z,41.93
2022-10-21T22:06:29.145Z,44.20
2022-10-21T22:08:56.043Z,44.14
2022-10-21T22:11:24.996Z,43.51
2022-10-21T22:13:53.372Z,43.42
2022-10-21T22:16:22.152Z,43.29
2022-10-21T22:18:49.079Z,42.71
2022-10-21T22:21:20.304Z,42.67
2022-10-21T22:23:48.557Z,42.58
2022-10-21T22:26:17.202Z,42.21
2022-10-21T22:28:44.405Z,42.50
2022-10-21T22:31:15.342Z,42.33
2022-10-21T22:36:16.538Z,42.09
2022-10-21T22:38:44.110Z,42.25
2022-10-21T22:41:12.665Z,42.28
2022-10-21T22:43:39.967Z,42.30
2022-10-21T22:46:21.473Z,42.50
2022-10-21T22:48:53.316Z,42.48
2022-10-21T22:51:19.891Z,42.47
2022-10-21T22:53:50.790Z,42.40
2022-10-21T22:56:21.819Z,42.38
2022-10-21T22:58:48.308Z,42.23
2022-10-21T23:01:14.904Z,42.58
2022-10-21T23:03:41.437Z,42.43
2022-10-21T23:06:08.100Z,42.20
2022-10-21T23:08:34.643Z,42.46
2022-10-21T23:11:01.318Z,42.39
2022-10-21T23:13:27.929Z,42.30
2022-10-21T23:15:54.582Z,41.92
2022-10-21T23:18:21.170Z,41.99
2022-10-21T23:20:47.840Z,42.23
2022-10-21T23:23:14.322Z,41.90
2022-10-21T23:25:40.912Z,41.98
2022-10-21T23:28:09.747Z,41.84
2022-10-21T23:30:37.593Z,41.77
2022-10-21T23:33:04.365Z,41.72
2022-10-21T23:35:31.297Z,41.62
2022-10-21T23:37:59.230Z,41.61
2022-10-21T23:40:26.548Z,41.93
2022-10-21T23:42:53.280Z,41.82
2022-10-21T23:45:20.029Z,41.56
2022-10-21T23:47:46.787Z,41.54
2022-10-21T23:50:13.571Z,41.62
2022-10-21T23:52:40.387Z,41.37
2022-10-21T23:55:07.968Z,41.57
2022-10-21T23:57:34.774Z,41.62
